sensor_id;sensor_type;location;lat;lon;timestamp;pressure;altitude;pressure_sealevel;temperature;humidity
55070;BME280;40967;52.070;8.596;2024-03-08T00:01:27;100986.13;;;1.42;95.12
55070;BME280;40967;52.070;8.596;2024-03-08T00:03:57;100965.50;;;1.30;95.34
55070;BME280;40967;52.070;8.596;2024-03-08T00:06:24;100976.03;;;1.38;95.12
55070;BME280;40967;52.070;8.596;2024-03-08T00:08:51;100936.00;;;1.10;95.75
55070;BME280;40967;52.070;8.596;2024-03-08T00:11:19;100987.31;;;1.33;95.65
55070;BME280;40967;52.070;8.596;2024-03-08T00:13:46;100915.38;;;0.97;95.17
55070;BME280;40967;52.070;8.596;2024-03-08T00:16:13;101048.97;;;1.66;95.32
55070;BME280;40967;52.070;8.596;2024-03-08T00:18:45;100984.03;;;1.31;95.36
55070;BME280;40967;52.070;8.596;2024-03-08T00:21:12;101033.13;;;1.64;95.10
55070;BME280;40967;52.070;8.596;2024-03-08T00:23:40;101034.97;;;1.64;95.74
55070;BME280;40967;52.070;8.596;2024-03-08T00:26:10;100989.78;;;1.35;95.63
55070;BME280;40967;52.070;8.596;2024-03-08T00:28:37;101031.06;;;1.60;95.31
55070;BME280;40967;52.070;8.596;2024-03-08T00:31:06;101025.72;;;1.60;95.88
55070;BME280;40967;52.070;8.596;2024-03-08T00:33:33;100920.69;;;0.91;95.37
55070;BME280;40967;52.070;8.596;2024-03-08T00:36:05;100983.59;;;1.28;95.61
55070;BME280;40967;52.070;8.596;2024-03-08T00:38:33;100950.81;;;1.06;95.87
55070;BME280;40967;52.070;8.596;2024-03-08T00:41:00;100896.53;;;0.71;96.09
55070;BME280;40967;52.070;8.596;2024-03-08T00:43:27;100966.91;;;1.19;96.73
55070;BME280;40967;52.070;8.596;2024-03-08T00:45:53;101015.56;;;1.49;96.57
55070;BME280;40967;52.070;8.596;2024-03-08T00:48:20;100962.53;;;1.11;96.91
55070;BME280;40967;52.070;8.596;2024-03-08T00:50:50;100879.06;;;0.62;96.51
55070;BME280;40967;52.070;8.596;2024-03-08T00:53:22;100922.59;;;0.97;96.84
55070;BME280;40967;52.070;8.596;2024-03-08T00:55:49;101010.44;;;1.47;97.13
55070;BME280;40967;52.070;8.596;2024-03-08T00:58:15;100943.03;;;1.11;97.18
55070;BME280;40967;52.070;8.596;2024-03-08T01:00:42;100996.44;;;1.45;96.82
55070;BME280;40967;52.070;8.596;2024-03-08T01:03:10;100978.69;;;1.31;97.57
55070;BME280;40967;52.070;8.596;2024-03-08T01:05:40;100997.47;;;1.44;97.60
55070;BME280;40967;52.070;8.596;2024-03-08T01:08:06;100878.47;;;0.73;97.55
55070;BME280;40967;52.070;8.596;2024-03-08T01:10:36;100981.38;;;1.38;98.20
55070;BME280;40967;52.070;8.596;2024-03-08T01:13:03;100888.81;;;0.83;97.84
55070;BME280;40967;52.070;8.596;2024-03-08T01:15:31;100934.59;;;1.14;97.80
55070;BME280;40967;52.070;8.596;2024-03-08T01:17:58;100959.56;;;1.34;97.63
55070;BME280;40967;52.070;8.596;2024-03-08T01:20:26;100851.53;;;0.68;97.61
55070;BME280;40967;52.070;8.596;2024-03-08T01:22:53;100903.28;;;1.01;97.64
55070;BME280;40967;52.070;8.596;2024-03-08T01:25:23;100831.38;;;0.59;98.06
55070;BME280;40967;52.070;8.596;2024-03-08T01:27:51;100972.56;;;1.44;98.28
55070;BME280;40967;52.070;8.596;2024-03-08T01:30:19;100829.13;;;0.63;97.71
55070;BME280;40967;52.070;8.596;2024-03-08T01:32:46;100910.75;;;1.12;97.98
55070;BME280;40967;52.070;8.596;2024-03-08T01:35:13;100833.88;;;0.67;98.07
55070;BME280;40967;52.070;8.596;2024-03-08T01:37:39;100857.59;;;0.83;97.62
55070;BME280;40967;52.070;8.596;2024-03-08T01:40:07;100953.84;;;1.44;97.81
55070;BME280;40967;52.070;8.596;2024-03-08T01:42:51;100900.69;;;1.14;98.61
55070;BME280;40967;52.070;8.596;2024-03-08T01:45:19;100939.66;;;1.43;97.91
55070;BME280;40967;52.070;8.596;2024-03-08T01:47:47;100945.00;;;1.43;98.79
55070;BME280;40967;52.070;8.596;2024-03-08T01:50:17;100859.47;;;0.96;97.68
55070;BME280;40967;52.070;8.596;2024-03-08T01:52:45;100874.97;;;1.07;97.82
55070;BME280;40967;52.070;8.596;2024-03-08T01:55:12;100884.00;;;1.06;97.75
55070;BME280;40967;52.070;8.596;2024-03-08T01:57:41;100932.66;;;1.42;98.55
55070;BME280;40967;52.070;8.596;2024-03-08T02:00:13;100871.03;;;1.09;98.40
55070;BME280;40967;52.070;8.596;2024-03-08T02:02:45;100897.63;;;1.17;98.67
55070;BME280;40967;52.070;8.596;2024-03-08T02:05:13;100878.06;;;1.10;98.07
55070;BME280;40967;52.070;8.596;2024-03-08T02:07:41;100877.84;;;1.12;98.05
55070;BME280;40967;52.070;8.596;2024-03-08T02:10:09;100881.34;;;1.12;97.84
55070;BME280;40967;52.070;8.596;2024-03-08T02:12:37;100795.44;;;0.62;97.80
55070;BME280;40967;52.070;8.596;2024-03-08T02:15:05;100903.41;;;1.28;98.02
55070;BME280;40967;52.070;8.596;2024-03-08T02:17:33;100886.53;;;1.21;97.77
55070;BME280;40967;52.070;8.596;2024-03-08T02:20:03;100871.25;;;1.08;97.76
55070;BME280;40967;52.070;8.596;2024-03-08T02:22:31;100779.22;;;0.63;97.83
55070;BME280;40967;52.070;8.596;2024-03-08T02:24:59;100913.13;;;1.42;97.53
55070;BME280;40967;52.070;8.596;2024-03-08T02:27:27;100892.28;;;1.24;97.16
55070;BME280;40967;52.070;8.596;2024-03-08T02:29:55;100858.72;;;1.08;97.18
55070;BME280;40967;52.070;8.596;2024-03-08T02:32:25;100764.38;;;0.54;96.92
55070;BME280;40967;52.070;8.596;2024-03-08T02:34:56;100796.31;;;0.69;97.05
55070;BME280;40967;52.070;8.596;2024-03-08T02:37:25;100894.63;;;1.40;97.37
55070;BME280;40967;52.070;8.596;2024-03-08T02:39:55;100828.47;;;0.95;97.20
55070;BME280;40967;52.070;8.596;2024-03-08T02:42:24;100888.63;;;1.32;97.58
55070;BME280;40967;52.070;8.596;2024-03-08T02:44:51;100888.22;;;1.35;97.31
55070;BME280;40967;52.070;8.596;2024-03-08T02:47:17;100855.44;;;1.13;97.26
55070;BME280;40967;52.070;8.596;2024-03-08T02:49:46;100885.94;;;1.32;97.32
55070;BME280;40967;52.070;8.596;2024-03-08T02:52:12;100804.34;;;0.82;97.09
55070;BME280;40967;52.070;8.596;2024-03-08T02:54:39;100755.72;;;0.46;96.74
55070;BME280;40967;52.070;8.596;2024-03-08T02:57:07;100873.78;;;1.23;97.62
55070;BME280;40967;52.070;8.596;2024-03-08T02:59:34;100798.78;;;0.77;97.23
55070;BME280;40967;52.070;8.596;2024-03-08T03:02:05;100731.88;;;0.38;97.08
55070;BME280;40967;52.070;8.596;2024-03-08T03:04:35;100726.13;;;0.34;97.06
55070;BME280;40967;52.070;8.596;2024-03-08T03:07:03;100867.59;;;1.22;96.78
55070;BME280;40967;52.070;8.596;2024-03-08T03:09:30;100747.72;;;0.46;96.36
55070;BME280;40967;52.070;8.596;2024-03-08T03:11:58;100870.06;;;1.24;95.91
55070;BME280;40967;52.070;8.596;2024-03-08T03:14:29;100808.72;;;0.89;95.91
55070;BME280;40967;52.070;8.596;2024-03-08T03:16:56;100744.47;;;0.50;96.22
55070;BME280;40967;52.070;8.596;2024-03-08T03:19:25;100803.38;;;0.89;95.45
55070;BME280;40967;52.070;8.596;2024-03-08T03:21:54;100814.47;;;0.93;95.59
55070;BME280;40967;52.070;8.596;2024-03-08T03:24:21;100810.97;;;0.92;96.15
55070;BME280;40967;52.070;8.596;2024-03-08T03:26:49;100775.78;;;0.69;95.92
55070;BME280;40967;52.070;8.596;2024-03-08T03:29:17;100715.84;;;0.31;95.40
55070;BME280;40967;52.070;8.596;2024-03-08T03:31:45;100715.03;;;0.31;95.51
55070;BME280;40967;52.070;8.596;2024-03-08T03:34:12;100796.34;;;0.82;95.57
55070;BME280;40967;52.070;8.596;2024-03-08T03:36:39;100799.88;;;0.89;95.44
55070;BME280;40967;52.070;8.596;2024-03-08T03:39:08;100845.78;;;1.12;95.45
55070;BME280;40967;52.070;8.596;2024-03-08T03:41:38;100854.84;;;1.17;95.91
55070;BME280;40967;52.070;8.596;2024-03-08T03:44:07;100798.03;;;0.89;95.49
55070;BME280;40967;52.070;8.596;2024-03-08T03:46:35;100773.34;;;0.81;95.15
55070;BME280;40967;52.070;8.596;2024-03-08T03:49:03;100785.88;;;0.80;95.76
55070;BME280;40967;52.070;8.596;2024-03-08T03:51:30;100780.31;;;0.82;95.74
55070;BME280;40967;52.070;8.596;2024-03-08T03:53:57;100791.63;;;0.84;95.00
55070;BME280;40967;52.070;8.596;2024-03-08T03:56:26;100770.00;;;0.66;95.31
55070;BME280;40967;52.070;8.596;2024-03-08T03:58:53;100834.25;;;1.11;95.42
55070;BME280;40967;52.070;8.596;2024-03-08T04:01:20;100784.03;;;0.81;95.45
55070;BME280;40967;52.070;8.596;2024-03-08T04:03:46;100741.81;;;0.50;94.95
55070;BME280;40967;52.070;8.596;2024-03-08T04:06:15;100780.31;;;0.75;95.02
55070;BME280;40967;52.070;8.596;2024-03-08T04:08:43;100776.00;;;0.74;95.27
55070;BME280;40967;52.070;8.596;2024-03-08T04:11:10;100780.94;;;0.77;95.77
55070;BME280;40967;52.070;8.596;2024-03-08T04:13:40;100714.84;;;0.39;95.54
55070;BME280;40967;52.070;8.596;2024-03-08T04:16:06;100831.56;;;1.05;95.48
55070;BME280;40967;52.070;8.596;2024-03-08T04:18:34;100797.41;;;0.87;95.71
55070;BME280;40967;52.070;8.596;2024-03-08T04:21:04;100797.19;;;0.89;95.46
55070;BME280;40967;52.070;8.596;2024-03-08T04:23:34;100815.97;;;1.02;95.83
55070;BME280;40967;52.070;8.596;2024-03-08T04:26:02;100735.03;;;0.54;96.24
55070;BME280;40967;52.070;8.596;2024-03-08T04:28:32;100776.22;;;0.79;95.89
55070;BME280;40967;52.070;8.596;2024-03-08T04:30:58;100748.66;;;0.66;96.20
55070;BME280;40967;52.070;8.596;2024-03-08T04:33:28;100633.81;;;-0.01;96.31
55070;BME280;40967;52.070;8.596;2024-03-08T04:35:56;100669.13;;;0.08;95.79
55070;BME280;40967;52.070;8.596;2024-03-08T04:38:23;100794.31;;;0.84;96.72
55070;BME280;40967;52.070;8.596;2024-03-08T04:40:52;100737.25;;;0.44;96.99
55070;BME280;40967;52.070;8.596;2024-03-08T04:43:19;100737.69;;;0.48;96.53
55070;BME280;40967;52.070;8.596;2024-03-08T04:45:46;100795.53;;;0.81;96.80
55070;BME280;40967;52.070;8.596;2024-03-08T04:48:14;100794.06;;;0.79;97.30
55070;BME280;40967;52.070;8.596;2024-03-08T04:50:41;100654.72;;;-0.05;97.10
55070;BME280;40967;52.070;8.596;2024-03-08T04:53:09;100649.38;;;-0.05;96.27
55070;BME280;40967;52.070;8.596;2024-03-08T04:55:36;100782.13;;;0.75;96.95
55070;BME280;40967;52.070;8.596;2024-03-08T04:58:10;100786.88;;;0.73;96.66
55070;BME280;40967;52.070;8.596;2024-03-08T05:00:37;100657.59;;;-0.06;96.83
55070;BME280;40967;52.070;8.596;2024-03-08T05:03:04;100636.84;;;-0.11;96.46
55070;BME280;40967;52.070;8.596;2024-03-08T05:05:33;100764.66;;;0.66;96.93
55070;BME280;40967;52.070;8.596;2024-03-08T05:08:02;100670.16;;;0.07;96.79
55070;BME280;40967;52.070;8.596;2024-03-08T05:10:29;100763.41;;;0.62;97.17
55070;BME280;40967;52.070;8.596;2024-03-08T05:13:12;100710.91;;;0.28;97.04
55070;BME280;40967;52.070;8.596;2024-03-08T05:15:49;100755.97;;;0.51;97.64
55070;BME280;40967;52.070;8.596;2024-03-08T05:18:29;100749.81;;;0.50;97.72
55070;BME280;40967;52.070;8.596;2024-03-08T05:21:20;100624.03;;;-0.28;97.57
55070;BME280;40967;52.070;8.596;2024-03-08T05:23:47;100764.59;;;0.53;97.51
55070;BME280;40967;52.070;8.596;2024-03-08T05:26:15;100758.19;;;0.47;98.03
55070;BME280;40967;52.070;8.596;2024-03-08T05:28:44;100631.97;;;-0.35;97.64
55070;BME280;40967;52.070;8.596;2024-03-08T05:31:19;100627.25;;;-0.39;97.73
55070;BME280;40967;52.070;8.596;2024-03-08T05:33:48;100625.41;;;-0.39;98.30
55070;BME280;40967;52.070;8.596;2024-03-08T05:36:19;100764.16;;;0.43;98.14
55070;BME280;40967;52.070;8.596;2024-03-08T05:38:47;100680.53;;;-0.12;98.09
55070;BME280;40967;52.070;8.596;2024-03-08T05:41:16;100759.59;;;0.37;98.97
55070;BME280;40967;52.070;8.596;2024-03-08T05:43:43;100762.03;;;0.32;98.94
55070;BME280;40967;52.070;8.596;2024-03-08T05:46:10;100759.56;;;0.30;98.95
55070;BME280;40967;52.070;8.596;2024-03-08T05:48:39;100701.84;;;-0.12;99.33
55070;BME280;40967;52.070;8.596;2024-03-08T05:51:05;100697.56;;;-0.13;99.42
55070;BME280;40967;52.070;8.596;2024-03-08T05:53:32;100735.47;;;0.17;99.26
55070;BME280;40967;52.070;8.596;2024-03-08T05:56:13;100758.25;;;0.20;99.95
55070;BME280;40967;52.070;8.596;2024-03-08T05:58:40;100759.88;;;0.14;99.68
55070;BME280;40967;52.070;8.596;2024-03-08T06:01:06;100757.81;;;0.16;99.97
55070;BME280;40967;52.070;8.596;2024-03-08T06:03:33;100759.50;;;0.17;99.81
55070;BME280;40967;52.070;8.596;2024-03-08T06:06:01;100747.53;;;0.07;99.84
55070;BME280;40967;52.070;8.596;2024-03-08T06:08:31;100757.03;;;0.16;100.00
55070;BME280;40967;52.070;8.596;2024-03-08T06:10:57;100684.28;;;-0.34;100.00
55070;BME280;40967;52.070;8.596;2024-03-08T06:13:24;100614.47;;;-0.78;99.77
55070;BME280;40967;52.070;8.596;2024-03-08T06:15:51;100670.50;;;-0.44;99.97
55070;BME280;40967;52.070;8.596;2024-03-08T06:18:18;100765.41;;;0.13;99.79
55070;BME280;40967;52.070;8.596;2024-03-08T06:20:46;100710.03;;;-0.20;100.00
55070;BME280;40967;52.070;8.596;2024-03-08T06:23:14;100736.41;;;-0.04;100.00
55070;BME280;40967;52.070;8.596;2024-03-08T06:25:43;100751.63;;;0.09;100.00
55070;BME280;40967;52.070;8.596;2024-03-08T06:28:09;100664.09;;;-0.49;100.00
55070;BME280;40967;52.070;8.596;2024-03-08T06:30:36;100750.75;;;0.02;100.00
55070;BME280;40967;52.070;8.596;2024-03-08T06:33:03;100753.63;;;0.00;100.00
55070;BME280;40967;52.070;8.596;2024-03-08T06:35:30;100756.94;;;0.03;100.00
55070;BME280;40967;52.070;8.596;2024-03-08T06:37:57;100756.94;;;0.03;100.00
55070;BME280;40967;52.070;8.596;2024-03-08T06:40:25;100758.41;;;0.05;100.00
55070;BME280;40967;52.070;8.596;2024-03-08T06:42:52;100721.56;;;-0.13;100.00
55070;BME280;40967;52.070;8.596;2024-03-08T06:45:18;100685.25;;;-0.41;100.00
55070;BME280;40967;52.070;8.596;2024-03-08T06:47:46;100755.13;;;0.10;100.00
55070;BME280;40967;52.070;8.596;2024-03-08T06:50:13;100715.63;;;-0.08;100.00
55070;BME280;40967;52.070;8.596;2024-03-08T06:52:40;100703.25;;;-0.16;100.00
55070;BME280;40967;52.070;8.596;2024-03-08T06:55:08;100756.22;;;0.22;100.00
55070;BME280;40967;52.070;8.596;2024-03-08T06:57:38;100743.28;;;0.19;100.00
55070;BME280;40967;52.070;8.596;2024-03-08T07:00:06;100763.50;;;0.34;100.00
55070;BME280;40967;52.070;8.596;2024-03-08T07:02:35;100743.13;;;0.33;100.00
55070;BME280;40967;52.070;8.596;2024-03-08T07:05:02;100761.50;;;0.49;100.00
55070;BME280;40967;52.070;8.596;2024-03-08T07:07:29;100744.47;;;0.50;100.00
55070;BME280;40967;52.070;8.596;2024-03-08T07:09:57;100745.75;;;0.61;100.00
55070;BME280;40967;52.070;8.596;2024-03-08T07:12:24;100713.88;;;0.53;100.00
55070;BME280;40967;52.070;8.596;2024-03-08T07:14:53;100742.13;;;0.81;100.00
55070;BME280;40967;52.070;8.596;2024-03-08T07:17:19;100749.16;;;0.95;100.00
55070;BME280;40967;52.070;8.596;2024-03-08T07:19:49;100769.53;;;1.16;100.00
55070;BME280;40967;52.070;8.596;2024-03-08T07:22:16;100736.22;;;1.12;100.00
55070;BME280;40967;52.070;8.596;2024-03-08T07:24:42;100735.03;;;1.28;100.00
55070;BME280;40967;52.070;8.596;2024-03-08T07:27:30;100765.50;;;1.53;100.00
55070;BME280;40967;52.070;8.596;2024-03-08T07:29:58;100710.56;;;1.37;99.79
55070;BME280;40967;52.070;8.596;2024-03-08T07:32:26;100618.66;;;0.92;98.72
55070;BME280;40967;52.070;8.596;2024-03-08T07:34:55;100746.34;;;1.88;99.08
55070;BME280;40967;52.070;8.596;2024-03-08T07:37:22;100626.88;;;1.24;98.75
55070;BME280;40967;52.070;8.596;2024-03-08T07:39:49;100716.69;;;1.96;97.97
55070;BME280;40967;52.070;8.596;2024-03-08T07:42:15;100761.50;;;2.27;97.16
55070;BME280;40967;52.070;8.596;2024-03-08T07:44:42;100606.28;;;1.57;96.64
55070;BME280;40967;52.070;8.596;2024-03-08T07:47:10;100713.69;;;2.37;96.71
55070;BME280;40967;52.070;8.596;2024-03-08T07:49:37;100700.75;;;2.34;95.66
55070;BME280;40967;52.070;8.596;2024-03-08T07:52:04;100619.94;;;1.99;94.31
55070;BME280;40967;52.070;8.596;2024-03-08T07:54:32;100661.59;;;2.40;93.71
55070;BME280;40967;52.070;8.596;2024-03-08T07:56:59;100680.84;;;2.61;93.54
55070;BME280;40967;52.070;8.596;2024-03-08T07:59:28;100690.78;;;2.85;93.09
55070;BME280;40967;52.070;8.596;2024-03-08T08:01:55;100663.59;;;2.88;93.27
55070;BME280;40967;52.070;8.596;2024-03-08T08:04:23;100655.66;;;3.00;92.23
55070;BME280;40967;52.070;8.596;2024-03-08T08:06:50;100721.00;;;3.61;91.33
55070;BME280;40967;52.070;8.596;2024-03-08T08:09:16;100732.38;;;3.81;91.40
55070;BME280;40967;52.070;8.596;2024-03-08T08:11:53;100733.22;;;4.00;90.75
55070;BME280;40967;52.070;8.596;2024-03-08T08:14:20;100704.97;;;3.97;90.29
55070;BME280;40967;52.070;8.596;2024-03-08T08:16:47;100733.91;;;4.31;88.68
55070;BME280;40967;52.070;8.596;2024-03-08T08:19:17;100726.53;;;4.45;88.22
55070;BME280;40967;52.070;8.596;2024-03-08T08:21:48;100730.09;;;4.57;87.42
55070;BME280;40967;52.070;8.596;2024-03-08T08:24:15;100728.66;;;4.73;86.86
55070;BME280;40967;52.070;8.596;2024-03-08T08:26:41;100720.94;;;4.94;87.24
55070;BME280;40967;52.070;8.596;2024-03-08T08:29:11;100713.88;;;5.11;86.21
55070;BME280;40967;52.070;8.596;2024-03-08T08:31:40;100708.44;;;5.29;84.77
55070;BME280;40967;52.070;8.596;2024-03-08T08:34:09;100676.03;;;5.24;83.00
55070;BME280;40967;52.070;8.596;2024-03-08T08:36:36;100626.50;;;5.02;81.82
55070;BME280;40967;52.070;8.596;2024-03-08T08:39:05;100678.38;;;5.44;81.01
55070;BME280;40967;52.070;8.596;2024-03-08T08:41:37;100701.34;;;5.81;79.45
55070;BME280;40967;52.070;8.596;2024-03-08T08:44:04;100698.25;;;5.96;79.29
55070;BME280;40967;52.070;8.596;2024-03-08T08:46:35;100658.19;;;5.88;79.01
55070;BME280;40967;52.070;8.596;2024-03-08T08:49:03;100619.66;;;5.75;78.10
55070;BME280;40967;52.070;8.596;2024-03-08T08:51:29;100692.44;;;6.38;77.69
55070;BME280;40967;52.070;8.596;2024-03-08T08:53:59;100604.34;;;5.99;75.83
55070;BME280;40967;52.070;8.596;2024-03-08T08:56:30;100689.53;;;6.68;75.69
55070;BME280;40967;52.070;8.596;2024-03-08T08:58:57;100645.13;;;6.59;74.50
55070;BME280;40967;52.070;8.596;2024-03-08T09:01:27;100681.81;;;6.88;73.77
55070;BME280;40967;52.070;8.596;2024-03-08T09:03:57;100642.41;;;6.70;73.53
55070;BME280;40967;52.070;8.596;2024-03-08T09:06:23;100582.19;;;6.37;72.90
55070;BME280;40967;52.070;8.596;2024-03-08T09:08:54;100611.78;;;6.76;72.56
55070;BME280;40967;52.070;8.596;2024-03-08T09:11:20;100597.16;;;6.89;72.70
55070;BME280;40967;52.070;8.596;2024-03-08T09:13:49;100644.97;;;7.38;71.82
55070;BME280;40967;52.070;8.596;2024-03-08T09:16:15;100607.97;;;7.39;71.43
55070;BME280;40967;52.070;8.596;2024-03-08T09:18:42;100665.50;;;7.94;70.62
55070;BME280;40967;52.070;8.596;2024-03-08T09:21:09;100561.56;;;7.58;70.42
55070;BME280;40967;52.070;8.596;2024-03-08T09:23:36;100660.28;;;8.26;68.24
55070;BME280;40967;52.070;8.596;2024-03-08T09:26:04;100636.28;;;8.29;67.73
55070;BME280;40967;52.070;8.596;2024-03-08T09:28:33;100590.06;;;8.09;66.85
55070;BME280;40967;52.070;8.596;2024-03-08T09:31:02;100547.59;;;7.83;65.89
55070;BME280;40967;52.070;8.596;2024-03-08T09:33:28;100529.00;;;7.86;65.70
55070;BME280;40967;52.070;8.596;2024-03-08T09:35:55;100586.16;;;8.43;64.94
55070;BME280;40967;52.070;8.596;2024-03-08T09:38:24;100633.09;;;8.80;65.52
55070;BME280;40967;52.070;8.596;2024-03-08T09:40:54;100613.47;;;8.95;65.09
55070;BME280;40967;52.070;8.596;2024-03-08T09:43:23;100617.09;;;9.05;64.08
55070;BME280;40967;52.070;8.596;2024-03-08T09:45:57;100572.81;;;8.85;63.09
55070;BME280;40967;52.070;8.596;2024-03-08T09:48:25;100602.06;;;9.19;62.81
55070;BME280;40967;52.070;8.596;2024-03-08T09:50:54;100558.88;;;8.98;61.92
55070;BME280;40967;52.070;8.596;2024-03-08T09:53:22;100586.13;;;9.23;61.34
55070;BME280;40967;52.070;8.596;2024-03-08T09:55:49;100577.25;;;9.28;61.00
55070;BME280;40967;52.070;8.596;2024-03-08T09:58:17;100561.28;;;9.31;61.17
55070;BME280;40967;52.070;8.596;2024-03-08T10:01:01;100544.81;;;9.38;60.26
55070;BME280;40967;52.070;8.596;2024-03-08T10:03:31;100543.25;;;9.47;59.87
55070;BME280;40967;52.070;8.596;2024-03-08T10:06:01;100535.72;;;9.54;60.25
55070;BME280;40967;52.070;8.596;2024-03-08T10:08:28;100514.56;;;9.56;59.56
55070;BME280;40967;52.070;8.596;2024-03-08T10:10:56;100564.31;;;9.81;58.82
55070;BME280;40967;52.070;8.596;2024-03-08T10:13:24;100567.03;;;9.86;58.77
55070;BME280;40967;52.070;8.596;2024-03-08T10:15:52;100506.28;;;9.72;59.03
55070;BME280;40967;52.070;8.596;2024-03-08T10:18:19;100520.16;;;9.91;58.31
55070;BME280;40967;52.070;8.596;2024-03-08T10:21:01;100517.75;;;9.99;57.83
55070;BME280;40967;52.070;8.596;2024-03-08T10:23:29;100516.44;;;10.02;57.88
55070;BME280;40967;52.070;8.596;2024-03-08T10:26:10;100529.50;;;10.20;57.57
55070;BME280;40967;52.070;8.596;2024-03-08T10:28:40;100499.66;;;10.10;57.07
55070;BME280;40967;52.070;8.596;2024-03-08T10:31:10;100510.59;;;10.35;56.80
55070;BME280;40967;52.070;8.596;2024-03-08T10:33:37;100534.53;;;10.73;57.00
55070;BME280;40967;52.070;8.596;2024-03-08T10:36:08;100525.03;;;10.91;56.30
55070;BME280;40967;52.070;8.596;2024-03-08T10:38:36;100487.03;;;10.71;55.76
55070;BME280;40967;52.070;8.596;2024-03-08T10:41:06;100471.00;;;10.64;55.03
55070;BME280;40967;52.070;8.596;2024-03-08T10:44:00;100525.56;;;11.13;55.43
55070;BME280;40967;52.070;8.596;2024-03-08T10:46:45;100505.19;;;11.25;55.03
55070;BME280;40967;52.070;8.596;2024-03-08T10:49:25;100454.16;;;11.02;54.12
55070;BME280;40967;52.070;8.596;2024-03-08T10:51:59;100506.78;;;11.47;53.96
55070;BME280;40967;52.070;8.596;2024-03-08T10:54:26;100507.84;;;11.51;53.76
55070;BME280;40967;52.070;8.596;2024-03-08T10:56:53;100482.31;;;11.41;53.46
55070;BME280;40967;52.070;8.596;2024-03-08T10:59:22;100515.19;;;11.65;53.14
55070;BME280;40967;52.070;8.596;2024-03-08T11:01:49;100501.28;;;11.72;53.51
55070;BME280;40967;52.070;8.596;2024-03-08T11:04:17;100492.03;;;11.78;52.74
55070;BME280;40967;52.070;8.596;2024-03-08T11:06:50;100466.81;;;11.57;52.83
55070;BME280;40967;52.070;8.596;2024-03-08T11:09:29;100455.38;;;11.60;52.91
55070;BME280;40967;52.070;8.596;2024-03-08T11:12:20;100494.09;;;12.01;52.51
55070;BME280;40967;52.070;8.596;2024-03-08T11:14:51;100443.38;;;11.71;52.35
55070;BME280;40967;52.070;8.596;2024-03-08T11:17:21;100477.53;;;11.97;52.03
55070;BME280;40967;52.070;8.596;2024-03-08T11:19:48;100446.34;;;11.80;51.25
55070;BME280;40967;52.070;8.596;2024-03-08T11:22:21;100418.41;;;11.64;50.79
55070;BME280;40967;52.070;8.596;2024-03-08T11:24:51;100389.44;;;11.39;50.92
55070;BME280;40967;52.070;8.596;2024-03-08T11:27:18;100432.78;;;11.75;50.46
55070;BME280;40967;52.070;8.596;2024-03-08T11:29:59;100433.81;;;11.84;49.82
55070;BME280;40967;52.070;8.596;2024-03-08T11:32:35;100402.63;;;11.61;50.69
55070;BME280;40967;52.070;8.596;2024-03-08T11:35:02;100425.44;;;11.75;50.71
55070;BME280;40967;52.070;8.596;2024-03-08T11:37:33;100365.53;;;11.36;50.81
55070;BME280;40967;52.070;8.596;2024-03-08T11:40:11;100443.34;;;11.86;50.47
55070;BME280;40967;52.070;8.596;2024-03-08T11:42:40;100410.25;;;11.59;50.16
55070;BME280;40967;52.070;8.596;2024-03-08T11:45:10;100379.63;;;11.43;50.18
55070;BME280;40967;52.070;8.596;2024-03-08T11:47:46;100349.31;;;11.21;50.56
55070;BME280;40967;52.070;8.596;2024-03-08T11:50:22;100375.53;;;11.51;50.58
55070;BME280;40967;52.070;8.596;2024-03-08T11:52:50;100425.06;;;11.97;50.43
55070;BME280;40967;52.070;8.596;2024-03-08T11:55:35;100326.38;;;11.48;50.46
55070;BME280;40967;52.070;8.596;2024-03-08T11:58:04;100357.41;;;11.85;50.14
55070;BME280;40967;52.070;8.596;2024-03-08T12:00:36;100348.75;;;11.78;49.19
55070;BME280;40967;52.070;8.596;2024-03-08T12:03:12;100402.63;;;12.15;49.38
55070;BME280;40967;52.070;8.596;2024-03-08T12:05:57;100304.56;;;11.58;49.27
55070;BME280;40967;52.070;8.596;2024-03-08T12:08:26;100299.09;;;11.73;49.72
55070;BME280;40967;52.070;8.596;2024-03-08T12:10:55;100365.00;;;12.27;49.23
55070;BME280;40967;52.070;8.596;2024-03-08T12:13:31;100334.16;;;12.08;48.88
55070;BME280;40967;52.070;8.596;2024-03-08T12:16:12;100353.88;;;12.23;48.17
55070;BME280;40967;52.070;8.596;2024-03-08T12:18:42;100345.06;;;12.03;47.97
55070;BME280;40967;52.070;8.596;2024-03-08T12:21:20;100346.19;;;12.02;47.87
55070;BME280;40967;52.070;8.596;2024-03-08T12:24:03;100269.88;;;11.44;47.70
55070;BME280;40967;52.070;8.596;2024-03-08T12:26:34;100255.25;;;11.35;47.61
55070;BME280;40967;52.070;8.596;2024-03-08T12:29:15;100278.25;;;11.53;48.16
55070;BME280;40967;52.070;8.596;2024-03-08T12:31:43;100269.25;;;11.58;48.23
55070;BME280;40967;52.070;8.596;2024-03-08T12:34:10;100228.53;;;11.53;48.35
55070;BME280;40967;52.070;8.596;2024-03-08T12:36:51;100222.59;;;11.45;47.68
55070;BME280;40967;52.070;8.596;2024-03-08T12:39:22;100296.75;;;11.95;48.14
55070;BME280;40967;52.070;8.596;2024-03-08T12:41:56;100279.44;;;11.81;48.20
55070;BME280;40967;52.070;8.596;2024-03-08T12:44:25;100290.78;;;11.93;47.99
55070;BME280;40967;52.070;8.596;2024-03-08T12:46:53;100266.97;;;11.75;47.68
55070;BME280;40967;52.070;8.596;2024-03-08T12:49:20;100261.88;;;11.68;47.36
55070;BME280;40967;52.070;8.596;2024-03-08T12:51:50;100319.56;;;11.99;47.66
55070;BME280;40967;52.070;8.596;2024-03-08T12:54:24;100315.72;;;12.00;48.27
55070;BME280;40967;52.070;8.596;2024-03-08T12:56:52;100301.59;;;11.98;48.22
55070;BME280;40967;52.070;8.596;2024-03-08T12:59:19;100259.41;;;11.72;48.44
55070;BME280;40967;52.070;8.596;2024-03-08T13:01:53;100270.56;;;11.70;48.74
55070;BME280;40967;52.070;8.596;2024-03-08T13:04:25;100193.16;;;11.19;48.30
55070;BME280;40967;52.070;8.596;2024-03-08T13:06:53;100226.28;;;11.21;48.75
55070;BME280;40967;52.070;8.596;2024-03-08T13:09:21;100234.13;;;11.27;48.80